9 a 16/11 - Algo cálido, tormentas especialmente hacia NOA/O/N Patagónico y O región pampeana, más estable al este



and96
Mensajes: 6334
Registrado: Mié Ago 15, 2012 2:32 pm
Ubicación: Tandil, BA

Re: 9 a 16/11 - Algo cálido, tormentas especialmente hacia NOA/O/N Patagónico y O región pampeana, más estable al este

Mensaje por and96 » Sab Nov 14, 2020 9:57 pm

Bellísimo atardecer de hoy :D



Ahora bajó la temperatura, 15 grados viento moderado del sur :)

Avatar de Usuario
Diecha
Mensajes: 15099
Registrado: Jue Ago 25, 2011 9:31 pm
Ubicación: Lomas de Zamora

Re: 9 a 16/11 - Algo cálido, tormentas especialmente hacia NOA/O/N Patagónico y O región pampeana, más estable al este

Mensaje por Diecha » Sab Nov 14, 2020 10:11 pm

Imagen

Imagen
Spoiler
Mostrar
Imagen
Imagen
Imagen
Imagen
Imagen
Imagen
Imagen
Imagen
Imagen
Imagen
Imagen
Imagen
Imagen
Imagen
Imagen
Imagen
Última edición por Diecha el Sab Nov 14, 2020 11:37 pm, editado 1 vez en total.

Stormy
Mensajes: 1473
Registrado: Vie Abr 07, 2017 5:19 pm
Ubicación: La Plata

Re: 9 a 16/11 - Algo cálido, tormentas especialmente hacia NOA/O/N Patagónico y O región pampeana, más estable al este

Mensaje por Stormy » Sab Nov 14, 2020 10:55 pm

El norte picó en punta otra vez con el calor hoy. Rivadavia clavó 43.8º, Orán, Tartagal y Las Lomitas también bien arriba de los 40º.
mateix escribió:pamperos que hacen disparar la T...
Marcelo escribió:Esa térmica es más trucha que cola de tornado.


Avatar de Usuario
Ezequiel15
Mensajes: 12321
Registrado: Lun Ene 23, 2012 4:18 pm
Ubicación: I Casanova
Contactar:

Re: 9 a 16/11 - Algo cálido, tormentas especialmente hacia NOA/O/N Patagónico y O región pampeana, más estable al este

Mensaje por Ezequiel15 » Sab Nov 14, 2020 11:01 pm

Su puso bastante ventoso, y llueve un poco. Lo curioso es que está bajando la humedad relativa. La temperatura bajó 3 grados en los últimos 10 minutos.

jorge marcelo
Mensajes: 30
Registrado: Lun Nov 04, 2019 10:39 pm
Ubicación: Caba

Re: 9 a 16/11 - Algo cálido, tormentas especialmente hacia NOA/O/N Patagónico y O región pampeana, más estable al este

Mensaje por jorge marcelo » Sab Nov 14, 2020 11:03 pm

alguien sabe que va a pasar en CABA si va a llover o no va a llover esa noche?

Avatar de Usuario
MOTORHOMEMASTER
Mensajes: 4900
Registrado: Lun May 16, 2011 2:20 pm
Ubicación: Castelar o Hurlingham, Prov. Bs. As.

Re: 9 a 16/11 - Algo cálido, tormentas especialmente hacia NOA/O/N Patagónico y O región pampeana, más estable al este

Mensaje por MOTORHOMEMASTER » Sab Nov 14, 2020 11:09 pm

Se levantaron rafagas por Castelar

Avatar de Usuario
Diecha
Mensajes: 15099
Registrado: Jue Ago 25, 2011 9:31 pm
Ubicación: Lomas de Zamora

Re: 9 a 16/11 - Algo cálido, tormentas especialmente hacia NOA/O/N Patagónico y O región pampeana, más estable al este

Mensaje por Diecha » Sab Nov 14, 2020 11:18 pm

- San Fernando 23 hs: SADF 150200Z 21008KT CAVOK 22/17 Q1012
- Aeroparque 23 hs: SABE 150200Z 23003KT CAVOK 22/16 Q1012
- Ezeiza 23 hs: SAEZ 150200Z 23011G22KT 180V250 9999 BKN020 OVC100 19/16 Q1012 (ráfaga de 41 Km/h)

Imagen
Imagen

Responder